createdAt,value
2023-02-16T00:00:31.035Z,79.58
2023-02-16T00:03:33.655Z,79.23
2023-02-16T00:06:36.725Z,79.77
2023-02-16T00:09:40.760Z,79.32
2023-02-16T00:13:01.145Z,79.57
2023-02-16T00:16:03.904Z,80.15
2023-02-16T00:19:19.917Z,79.47
2023-02-16T00:22:22.927Z,79.50
2023-02-16T00:25:26.996Z,79.24
2023-02-16T00:28:29.890Z,78.96
2023-02-16T00:31:32.893Z,79.97
2023-02-16T00:34:38.043Z,79.89
2023-02-16T00:37:40.605Z,80.19
2023-02-16T00:40:44.812Z,80.01
2023-02-16T00:43:47.395Z,80.10
2023-02-16T00:46:50.227Z,79.93
2023-02-16T00:49:54.725Z,79.41
2023-02-16T00:52:58.575Z,79.00
2023-02-16T00:56:02.391Z,79.33
2023-02-16T00:59:07.515Z,80.22
2023-02-16T01:02:10.191Z,80.31
2023-02-16T01:05:13.603Z,80.80
2023-02-16T01:08:35.535Z,81.09
2023-02-16T01:11:39.800Z,80.68
2023-02-16T01:14:42.507Z,80.36
2023-02-16T01:17:45.146Z,80.20
2023-02-16T01:20:48.871Z,80.53
2023-02-16T01:23:51.528Z,80.22
2023-02-16T01:26:55.474Z,80.22
2023-02-16T01:29:57.937Z,79.80
2023-02-16T01:33:00.908Z,79.84
2023-02-16T01:36:05.589Z,80.13
2023-02-16T01:39:09.202Z,79.97
2023-02-16T01:42:24.246Z,79.47
2023-02-16T01:45:32.074Z,79.90
2023-02-16T01:48:34.701Z,80.41
2023-02-16T01:51:45.406Z,80.72
2023-02-16T01:54:51.633Z,80.78
2023-02-16T01:57:58.256Z,81.38
2023-02-16T02:01:30.461Z,81.29
2023-02-16T02:04:56.321Z,80.80
2023-02-16T02:08:01.692Z,80.73
2023-02-16T02:11:09.164Z,80.83
2023-02-16T02:14:17.809Z,80.95
2023-02-16T02:17:21.511Z,80.94
2023-02-16T02:20:48.437Z,81.04
2023-02-16T02:24:05.953Z,81.11
2023-02-16T02:27:18.604Z,81.24
2023-02-16T02:30:31.799Z,81.60
2023-02-16T02:33:44.751Z,81.38
2023-02-16T02:36:51.358Z,81.06
2023-02-16T02:39:59.610Z,80.82
2023-02-16T02:43:08.955Z,81.79
2023-02-16T02:46:14.649Z,81.39
2023-02-16T02:49:17.377Z,81.41
2023-02-16T02:52:20.461Z,82.17
2023-02-16T02:55:40.737Z,82.09
2023-02-16T02:59:03.369Z,82.25
2023-02-16T03:02:06.033Z,81.73
2023-02-16T03:05:11.084Z,81.57
2023-02-16T03:08:15.735Z,81.24
2023-02-16T03:11:39.049Z,81.49
2023-02-16T03:14:45.215Z,81.90
2023-02-16T03:18:05.475Z,81.87
2023-02-16T03:21:25.702Z,81.94
2023-02-16T03:24:48.881Z,82.16
2023-02-16T03:28:09.548Z,81.73
2023-02-16T03:31:17.648Z,81.71
2023-02-16T03:34:22.020Z,81.81
2023-02-16T03:37:24.635Z,81.55
2023-02-16T03:40:33.279Z,81.07
2023-02-16T03:43:35.926Z,80.56
2023-02-16T03:46:40.020Z,79.83
2023-02-16T03:49:42.649Z,78.74
2023-02-16T03:52:45.407Z,79.29
2023-02-16T03:55:49.549Z,79.53
2023-02-16T03:58:52.357Z,79.55
2023-02-16T04:01:56.454Z,80.21
2023-02-16T04:04:59.376Z,80.27
2023-02-16T04:08:02.411Z,80.76
2023-02-16T04:11:27.081Z,80.17
2023-02-16T04:14:28.828Z,80.02
2023-02-16T04:17:33.547Z,80.38
2023-02-16T04:20:36.779Z,80.48
2023-02-16T04:23:39.508Z,80.84
2023-02-16T04:26:42.192Z,81.04
2023-02-16T04:29:45.111Z,81.56
2023-02-16T04:32:49.330Z,81.39
2023-02-16T04:35:52.005Z,81.65
2023-02-16T04:38:54.707Z,81.75
2023-02-16T04:41:57.717Z,82.23
2023-02-16T04:45:00.337Z,82.66
2023-02-16T04:48:04.314Z,82.59
2023-02-16T04:51:07.344Z,81.77
2023-02-16T04:54:10.127Z,82.39
2023-02-16T04:57:13.053Z,82.79
2023-02-16T05:00:16.349Z,82.73
2023-02-16T05:03:20.533Z,82.99
2023-02-16T05:06:23.316Z,82.55
2023-02-16T05:09:26.196Z,82.46
2023-02-16T05:12:46.394Z,82.43
2023-02-16T05:15:49.253Z,82.59
2023-02-16T05:18:53.259Z,82.66
2023-02-16T05:21:55.935Z,82.66
2023-02-16T05:24:58.587Z,83.35
2023-02-16T05:28:01.599Z,83.58
2023-02-16T05:31:04.578Z,83.54
2023-02-16T05:34:08.643Z,83.67
2023-02-16T05:37:11.297Z,83.55
2023-02-16T05:40:14.809Z,83.15
2023-02-16T05:43:17.716Z,82.48
2023-02-16T05:46:20.640Z,82.51
2023-02-16T05:49:24.830Z,82.44
2023-02-16T05:52:27.710Z,83.39
2023-02-16T05:55:30.714Z,83.14
2023-02-16T05:58:33.480Z,82.61
2023-02-16T06:01:36.230Z,82.07
2023-02-16T06:04:40.355Z,82.58
2023-02-16T06:07:43.077Z,82.63
2023-02-16T06:10:45.926Z,82.07
2023-02-16T06:13:50.152Z,81.55
2023-02-16T06:16:52.809Z,81.09
2023-02-16T06:19:56.777Z,81.26
2023-02-16T06:22:59.415Z,81.51
2023-02-16T06:26:02.075Z,81.69
2023-02-16T06:29:05.180Z,81.52
2023-02-16T06:32:07.927Z,82.57
2023-02-16T06:35:12.102Z,82.72
2023-02-16T06:38:14.792Z,82.50
2023-02-16T06:41:31.478Z,82.27
2023-02-16T06:44:34.292Z,82.43
2023-02-16T06:47:37.362Z,82.68
2023-02-16T06:50:41.390Z,82.69
2023-02-16T06:53:44.036Z,81.92
2023-02-16T06:56:46.833Z,81.88
2023-02-16T06:59:49.694Z,81.83
2023-02-16T07:02:52.426Z,81.78
2023-02-16T07:05:56.664Z,81.34
2023-02-16T07:09:00.423Z,81.10
2023-02-16T07:12:03.062Z,81.21
2023-02-16T07:15:06.150Z,80.45
2023-02-16T07:18:08.856Z,79.76
2023-02-16T07:21:13.056Z,79.75
2023-02-16T07:24:16.086Z,79.66
2023-02-16T07:27:18.753Z,79.36
2023-02-16T07:30:21.761Z,79.39
2023-02-16T07:33:24.596Z,79.40
2023-02-16T07:36:28.874Z,79.28
2023-02-16T07:39:31.871Z,79.33
2023-02-16T07:42:35.331Z,78.82
2023-02-16T07:45:38.117Z,78.49
2023-02-16T07:48:40.731Z,78.04
2023-02-16T07:51:44.958Z,77.47
2023-02-16T07:54:47.708Z,76.65
2023-02-16T07:57:54.714Z,76.40
2023-02-16T08:00:58.356Z,76.11
2023-02-16T08:04:01.079Z,76.60
2023-02-16T08:07:04.954Z,76.29
2023-02-16T08:10:08.072Z,75.83
2023-02-16T08:13:10.898Z,74.79
2023-02-16T08:16:16.008Z,74.47
2023-02-16T08:19:18.624Z,74.23
2023-02-16T08:22:22.587Z,74.19
2023-02-16T08:25:25.764Z,73.71
2023-02-16T08:28:29.471Z,73.28
2023-02-16T08:31:34.987Z,72.61
2023-02-16T08:34:38.732Z,72.57
2023-02-16T08:37:42.674Z,72.00
2023-02-16T08:40:48.771Z,71.24
2023-02-16T08:43:52.371Z,70.67
2023-02-16T08:46:57.334Z,70.22
2023-02-16T08:49:59.938Z,69.48
2023-02-16T08:53:04.079Z,68.48
2023-02-16T08:56:07.236Z,67.89
2023-02-16T08:59:09.964Z,67.74
2023-02-16T09:02:12.842Z,66.91
2023-02-16T09:05:16.077Z,66.19
2023-02-16T09:08:20.396Z,65.94
2023-02-16T09:11:24.027Z,64.64
2023-02-16T09:14:27.997Z,63.07
2023-02-16T09:17:31.161Z,62.99
2023-02-16T09:20:34.118Z,61.79
2023-02-16T09:23:38.506Z,61.94
2023-02-16T09:26:42.860Z,61.45
2023-02-16T09:29:45.470Z,60.25
2023-02-16T09:32:48.265Z,59.43
2023-02-16T09:35:50.906Z,58.86
2023-02-16T09:38:56.360Z,59.10
2023-02-16T09:42:05.636Z,58.78
2023-02-16T09:45:10.546Z,57.39
2023-02-16T09:48:22.945Z,56.87
2023-02-16T09:51:34.284Z,56.79
2023-02-16T09:54:43.990Z,57.33
2023-02-16T09:57:57.194Z,55.42
2023-02-16T10:01:05.580Z,55.52
2023-02-16T10:04:28.907Z,54.91
2023-02-16T10:07:36.398Z,54.65
2023-02-16T10:10:46.364Z,53.90
2023-02-16T10:13:54.111Z,53.38
2023-02-16T10:17:03.167Z,52.71
2023-02-16T10:20:11.418Z,51.57
2023-02-16T10:23:21.436Z,51.54
2023-02-16T10:26:29.518Z,50.81
2023-02-16T10:29:32.179Z,50.47
2023-02-16T10:32:44.024Z,50.45
2023-02-16T10:35:48.522Z,49.92
2023-02-16T10:38:56.431Z,49.49
2023-02-16T10:42:04.408Z,48.83
2023-02-16T10:45:18.860Z,48.37
2023-02-16T10:48:22.990Z,48.55
2023-02-16T10:51:28.963Z,47.43
2023-02-16T10:54:33.213Z,46.84
2023-02-16T10:57:37.232Z,46.38
2023-02-16T11:00:48.303Z,47.24
2023-02-16T11:03:53.135Z,46.68
2023-02-16T11:07:05.017Z,44.81
2023-02-16T11:10:27.473Z,44.71
2023-02-16T11:13:34.011Z,44.88
2023-02-16T11:16:36.813Z,44.95
2023-02-16T11:19:40.273Z,43.96
2023-02-16T11:22:43.031Z,43.34
2023-02-16T11:25:55.813Z,43.23
2023-02-16T11:29:09.225Z,43.92
2023-02-16T11:32:13.780Z,43.89
2023-02-16T11:35:17.608Z,43.01
2023-02-16T11:38:29.158Z,43.04
2023-02-16T11:41:33.578Z,42.54
2023-02-16T11:44:39.678Z,41.69
2023-02-16T11:47:43.197Z,41.56
2023-02-16T11:50:57.904Z,41.46
2023-02-16T11:54:02.557Z,40.58
2023-02-16T11:57:09.270Z,39.36
2023-02-16T12:00:18.161Z,39.58
2023-02-16T12:03:31.476Z,38.84
2023-02-16T12:06:47.114Z,38.48
2023-02-16T12:09:54.979Z,37.77
2023-02-16T12:13:04.011Z,37.59
2023-02-16T12:16:17.837Z,37.30
2023-02-16T12:19:24.413Z,36.81
2023-02-16T12:22:35.081Z,36.00
2023-02-16T12:25:40.037Z,35.09
2023-02-16T12:28:47.981Z,34.26
2023-02-16T12:32:02.348Z,33.94
2023-02-16T12:35:14.831Z,32.93
2023-02-16T12:38:24.582Z,32.00
2023-02-16T12:41:35.976Z,31.60
2023-02-16T12:44:42.801Z,31.19
2023-02-16T12:47:51.255Z,31.07
2023-02-16T12:50:54.289Z,30.81
2023-02-16T12:54:01.167Z,31.00
2023-02-16T12:57:08.162Z,30.86
2023-02-16T13:00:17.778Z,30.91
2023-02-16T13:03:35.074Z,31.08
2023-02-16T13:06:41.902Z,31.71
2023-02-16T13:09:51.374Z,31.61
2023-02-16T13:12:57.230Z,29.08
2023-02-16T13:16:03.305Z,21.43
2023-02-16T13:19:07.545Z,16.85
2023-02-16T13:22:53.732Z,15.33
2023-02-16T13:26:10.813Z,16.20
2023-02-16T13:29:30.225Z,17.75
2023-02-16T13:33:00.227Z,19.32
2023-02-16T13:36:29.753Z,19.28
2023-02-16T13:39:42.785Z,19.13
2023-02-16T13:42:59.311Z,17.49
2023-02-16T13:46:05.822Z,18.92
2023-02-16T13:49:28.000Z,21.77
2023-02-16T13:52:35.101Z,24.63
2023-02-16T13:55:40.447Z,25.49
2023-02-16T13:58:43.241Z,25.43
2023-02-16T14:01:47.309Z,21.51
2023-02-16T14:05:05.372Z,17.98
2023-02-16T14:08:18.852Z,19.60
2023-02-16T14:11:21.774Z,22.45
2023-02-16T14:14:31.448Z,24.16
2023-02-16T14:17:35.973Z,24.86
2023-02-16T14:20:38.912Z,25.62
2023-02-16T14:23:43.046Z,26.42
2023-02-16T14:26:53.761Z,28.52
2023-02-16T14:29:58.358Z,27.99
2023-02-16T14:33:06.876Z,29.41
2023-02-16T14:36:15.865Z,30.18
2023-02-16T14:39:22.889Z,31.41
2023-02-16T14:42:30.156Z,31.96
2023-02-16T14:45:51.805Z,32.37
2023-02-16T14:49:18.150Z,33.04
2023-02-16T14:52:38.727Z,33.37
2023-02-16T14:55:55.013Z,33.13
2023-02-16T14:59:01.535Z,32.74
2023-02-16T15:02:29.508Z,33.07
2023-02-16T15:05:34.374Z,33.28
2023-02-16T15:08:40.303Z,33.08
2023-02-16T15:12:07.998Z,33.95
2023-02-16T15:15:19.648Z,34.68
2023-02-16T15:18:24.039Z,35.55
2023-02-16T15:21:28.491Z,36.82
2023-02-16T15:24:31.291Z,36.39
2023-02-16T15:27:35.396Z,37.19
2023-02-16T15:30:41.242Z,37.81
2023-02-16T15:33:46.215Z,38.30
2023-02-16T15:36:48.816Z,38.12
2023-02-16T15:40:08.760Z,38.37
2023-02-16T15:43:26.816Z,39.05
2023-02-16T15:46:31.738Z,40.44
2023-02-16T15:49:34.975Z,40.92
2023-02-16T15:52:38.756Z,42.21
2023-02-16T15:55:45.834Z,42.96
2023-02-16T15:58:50.250Z,44.33
2023-02-16T16:01:58.177Z,44.52
2023-02-16T16:05:03.428Z,44.68
2023-02-16T16:08:06.363Z,43.58
2023-02-16T16:11:09.415Z,42.90
2023-02-16T16:14:14.685Z,40.79
2023-02-16T16:17:28.037Z,40.61
2023-02-16T16:20:32.228Z,40.54
2023-02-16T16:23:34.833Z,39.78
2023-02-16T16:26:52.697Z,39.09
2023-02-16T16:30:11.396Z,39.07
2023-02-16T16:33:15.916Z,38.79
2023-02-16T16:36:18.587Z,39.08
2023-02-16T16:39:25.414Z,39.01
2023-02-16T16:42:28.468Z,40.01
2023-02-16T16:45:39.901Z,39.79
2023-02-16T16:48:46.701Z,40.51
2023-02-16T16:51:53.267Z,40.46
2023-02-16T16:54:55.882Z,40.43
2023-02-16T16:58:00.600Z,40.14
2023-02-16T17:01:05.176Z,40.77
2023-02-16T17:04:08.011Z,42.48
2023-02-16T17:07:10.641Z,42.84
2023-02-16T17:10:13.381Z,43.32
2023-02-16T17:13:17.490Z,43.77
2023-02-16T17:16:22.943Z,44.66
2023-02-16T17:19:27.192Z,45.13
2023-02-16T17:22:29.876Z,44.45
2023-02-16T17:25:34.296Z,45.22
2023-02-16T17:28:37.563Z,45.96
2023-02-16T17:31:42.394Z,45.69
2023-02-16T17:34:45.717Z,45.87
2023-02-16T17:37:49.371Z,45.93
2023-02-16T17:40:52.684Z,45.98
2023-02-16T17:43:56.164Z,46.80
2023-02-16T17:47:00.249Z,47.08
2023-02-16T17:50:03.876Z,47.22
2023-02-16T17:53:10.613Z,46.83
2023-02-16T17:56:14.621Z,47.00
2023-02-16T17:59:17.428Z,47.78
2023-02-16T18:02:21.748Z,47.74
2023-02-16T18:05:24.724Z,47.18
2023-02-16T18:08:27.375Z,48.19
2023-02-16T18:11:30.086Z,47.82
2023-02-16T18:14:32.806Z,46.25
2023-02-16T18:17:36.858Z,45.83
2023-02-16T18:20:39.860Z,45.43
2023-02-16T18:23:42.529Z,46.23
2023-02-16T18:26:45.411Z,46.64
2023-02-16T18:29:48.157Z,46.53
2023-02-16T18:32:52.153Z,46.84
2023-02-16T18:35:57.151Z,47.00
2023-02-16T18:39:00.022Z,47.86
2023-02-16T18:42:02.922Z,47.96
2023-02-16T18:45:06.953Z,47.98
2023-02-16T18:48:11.402Z,47.97
2023-02-16T18:51:14.196Z,48.17
2023-02-16T18:54:16.859Z,48.28
2023-02-16T18:57:19.564Z,48.52
2023-02-16T19:00:22.285Z,48.56
2023-02-16T19:03:27.655Z,49.18
2023-02-16T19:06:31.304Z,49.54
2023-02-16T19:09:33.902Z,50.31
2023-02-16T19:12:36.625Z,50.21
2023-02-16T19:15:39.371Z,49.97
2023-02-16T19:18:43.400Z,49.00
2023-02-16T19:21:46.018Z,48.21
2023-02-16T19:24:50.364Z,46.56
2023-02-16T19:27:53.120Z,46.14
2023-02-16T19:30:57.579Z,45.39
2023-02-16T19:34:01.654Z,45.48
2023-02-16T19:37:04.290Z,46.08
2023-02-16T19:40:10.431Z,45.88
2023-02-16T19:43:13.598Z,45.00
2023-02-16T19:46:16.419Z,45.29
2023-02-16T19:49:20.698Z,44.37
2023-02-16T19:52:23.709Z,44.78
2023-02-16T19:55:26.344Z,43.57
2023-02-16T19:58:29.162Z,43.23
2023-02-16T20:01:31.977Z,43.47
2023-02-16T20:04:36.400Z,42.36
2023-02-16T20:07:38.976Z,43.18
2023-02-16T20:10:44.300Z,42.39
2023-02-16T20:13:47.505Z,42.80
2023-02-16T20:16:51.855Z,43.33
2023-02-16T20:19:56.035Z,42.07
2023-02-16T20:22:58.726Z,43.04
2023-02-16T20:26:01.442Z,44.05
2023-02-16T20:29:05.059Z,44.60
2023-02-16T20:32:08.188Z,44.94
2023-02-16T20:35:12.632Z,44.72
2023-02-16T20:38:15.960Z,46.58
2023-02-16T20:41:19.661Z,46.73
2023-02-16T20:44:22.724Z,47.16
2023-02-16T20:47:25.524Z,48.59
2023-02-16T20:50:29.490Z,50.93
2023-02-16T20:53:33.594Z,52.10
2023-02-16T20:56:36.960Z,54.19
2023-02-16T20:59:39.851Z,56.48
2023-02-16T21:02:43.272Z,56.85
2023-02-16T21:05:47.397Z,57.65
2023-02-16T21:08:50.220Z,59.03
2023-02-16T21:11:52.860Z,59.20
2023-02-16T21:14:55.870Z,59.66
2023-02-16T21:17:58.578Z,60.03
2023-02-16T21:21:03.227Z,59.70
2023-02-16T21:24:06.244Z,59.86
2023-02-16T21:27:09.352Z,59.49
2023-02-16T21:30:13.236Z,58.44
2023-02-16T21:33:15.973Z,54.79
2023-02-16T21:36:22.384Z,51.06
2023-02-16T21:43:10.984Z,48.78
2023-02-16T21:46:14.052Z,48.26
2023-02-16T21:49:18.278Z,47.63
2023-02-16T21:52:22.996Z,47.58
2023-02-16T21:55:52.238Z,46.04
2023-02-16T21:58:54.865Z,46.20
2023-02-16T22:01:57.584Z,46.03
2023-02-16T22:05:00.195Z,46.15
2023-02-16T22:08:04.399Z,46.12
2023-02-16T22:11:08.820Z,46.08
2023-02-16T22:14:12.006Z,46.03
2023-02-16T22:17:14.756Z,46.38
2023-02-16T22:20:18.013Z,46.20
2023-02-16T22:23:21.969Z,46.68
2023-02-16T22:26:26.235Z,46.30
2023-02-16T22:29:28.992Z,46.51
2023-02-16T22:32:31.689Z,46.93
2023-02-16T22:35:34.502Z,46.94
2023-02-16T22:38:38.717Z,46.97
2023-02-16T22:41:41.529Z,46.18
2023-02-16T22:44:44.152Z,46.62
2023-02-16T22:47:46.970Z,47.12
2023-02-16T22:50:58.203Z,47.18
2023-02-16T22:54:03.088Z,46.74
2023-02-16T22:57:07.933Z,47.00
2023-02-16T23:00:12.809Z,47.05
2023-02-16T23:03:15.742Z,47.35
2023-02-16T23:06:20.221Z,46.87
2023-02-16T23:09:24.549Z,47.66
2023-02-16T23:12:28.236Z,47.51
2023-02-16T23:15:30.775Z,46.98
2023-02-16T23:18:33.614Z,47.33
2023-02-16T23:21:36.290Z,47.73
2023-02-16T23:24:41.271Z,47.98
2023-02-16T23:27:43.988Z,48.06
2023-02-16T23:30:47.635Z,48.44
2023-02-16T23:33:50.307Z,47.84
2023-02-16T23:36:53.020Z,47.99
2023-02-16T23:39:56.952Z,47.09
2023-02-16T23:42:59.617Z,47.10
2023-02-16T23:46:03.163Z,46.68
2023-02-16T23:49:05.690Z,46.66
2023-02-16T23:52:08.278Z,46.80
2023-02-16T23:55:12.526Z,47.40
2023-02-16T23:58:15.261Z,46.58
